Malaga, WA (98828)

5:45 PM PST on December 17, 2014 (GMT -0800)
Summer Hill | Change Station
CLOSE
Current Station
Personal Weather Station
Location: East Wenatchee, WA
Elevation: 925 ft
Nearby Weather Stations
Active Advisory: Air Stagnation Advisory

Elev 925 ft 47.40 °N, 120.27 °W | Updated 7 minutes ago

Light Rain
Light Rain
35.8 °F
Feels Like 36 °F
N
0.0
Wind Variable Wind from East

Today
High -- | Low -- °F
--% Chance of Precip.
Yesterday
High -- | Low -- °F
Precip. -- in
7:42 AM 4:11 PM
Waning Crescent, 18% visible
Pressure 29.98 in
Visibility 9.0 miles
Clouds Overcast 2000 ft
Windchill 36 °F
Dew Point 36 °F
Humidity 99%
Rainfall 0.27 in
Snow Depth Not available.
UV 0 out of 12
Pollen .40 out of 12
Air Quality Not available.
Flu Activity Not available.
METAR KEAT 180055Z AUTO 36003KT 9SM -RA OVC020 02/01 A2995 RMK AO2 UPB34E42RAB42 SLP151 P0000 T00220011

More Conditions Fewer Conditions

Pressure 29.98 in
Visibility 9.0 miles
Clouds Overcast 2000 ft
Windchill 36 °F
Dew Point 36 °F
Humidity 99%
Rainfall 0.27 in
Snow Depth Not available.
UV 0 out of 12
Pollen .40 out of 12
Air Quality Not available.
Flu Activity Not available.
METAR KEAT 180055Z AUTO 36003KT 9SM -RA OVC020 02/01 A2995 RMK AO2 UPB34E42RAB42 SLP151 P0000 T00220011

More Conditions Fewer Conditions

10-Day Weather Forecast

Almanac

Astronomy

Dec. 17, 2014 Rise Set
Actual Time
Civil Twilight
Nautical Twilight
Astronomical Twilight
Moon
Length of Visible Light
Length of Day
Tomorrow will be .
, % of the Moon is Illuminated

Today's Extremes

State Highs State Lows

Community

WunderPhotos

Upload Photos

1,778,846 photos uploaded!

WunderBlogs® & News

Nearby

Air Quality

  Air Quality AQ Index Pollutant
Not available.

Snow Depth

Station Depth Elevation

Earthquake Activity

City Distance Mag. Time & Date
Minimum magnitude displayed is 2.5.

Coastal Water Temperatures

Place Temperature

Nearby Weather Stations